createdAt,value
2019-05-29T00:01:02.375Z,92.00
2019-05-29T00:03:30.772Z,92.00
2019-05-29T00:05:59.091Z,92.10
2019-05-29T00:08:27.349Z,92.10
2019-05-29T00:10:55.631Z,92.40
2019-05-29T00:13:23.893Z,92.30
2019-05-29T00:15:52.188Z,92.20
2019-05-29T00:18:20.500Z,92.30
2019-05-29T00:20:48.776Z,92.20
2019-05-29T00:23:17.059Z,92.40
2019-05-29T00:25:45.301Z,92.30
2019-05-29T00:28:14.750Z,92.20
2019-05-29T00:30:43.341Z,92.30
2019-05-29T00:33:12.130Z,92.50
2019-05-29T00:35:40.631Z,92.50
2019-05-29T00:38:08.903Z,92.60
2019-05-29T00:40:37.172Z,92.50
2019-05-29T00:43:05.477Z,92.60
2019-05-29T00:45:33.766Z,92.40
2019-05-29T00:48:02.091Z,92.40
2019-05-29T00:50:30.393Z,92.50
2019-05-29T00:52:58.738Z,92.50
2019-05-29T00:55:26.967Z,92.50
2019-05-29T00:57:55.239Z,92.50
2019-05-29T01:00:25.090Z,92.60
2019-05-29T01:02:53.404Z,92.70
2019-05-29T01:05:21.783Z,92.70
2019-05-29T01:07:50.063Z,93.00
2019-05-29T01:10:18.914Z,93.10
2019-05-29T01:12:47.344Z,93.10
2019-05-29T01:15:15.639Z,93.20
2019-05-29T01:17:43.876Z,93.20
2019-05-29T01:20:13.924Z,93.30
2019-05-29T01:22:42.325Z,93.20
2019-05-29T01:25:10.590Z,93.30
2019-05-29T01:27:38.850Z,93.20
2019-05-29T01:30:07.458Z,93.20
2019-05-29T01:32:35.698Z,93.20
2019-05-29T01:35:06.151Z,93.10
2019-05-29T01:37:34.441Z,93.10
2019-05-29T01:40:18.685Z,93.20
2019-05-29T01:42:33.014Z,93.30
2019-05-29T01:45:07.852Z,93.20
2019-05-29T01:47:31.292Z,93.30
2019-05-29T01:49:59.522Z,93.30
2019-05-29T01:52:28.100Z,93.30
2019-05-29T01:54:56.429Z,93.30
2019-05-29T01:57:24.667Z,93.20
2019-05-29T01:59:52.917Z,93.30
2019-05-29T02:02:21.960Z,93.40
2019-05-29T02:04:50.316Z,93.40
2019-05-29T02:07:19.877Z,93.30
2019-05-29T02:09:48.304Z,93.30
2019-05-29T02:12:16.607Z,93.30
2019-05-29T02:14:44.966Z,93.30
2019-05-29T02:17:13.205Z,93.40
2019-05-29T02:19:41.591Z,93.20
2019-05-29T02:22:09.858Z,93.30
2019-05-29T02:24:38.111Z,93.30
2019-05-29T02:27:06.432Z,93.40
2019-05-29T02:29:34.687Z,93.30
2019-05-29T02:32:02.931Z,93.40
2019-05-29T02:34:31.196Z,93.40
2019-05-29T02:36:59.467Z,93.40
2019-05-29T02:39:29.221Z,93.30
2019-05-29T02:41:57.894Z,93.30
2019-05-29T02:44:27.606Z,93.30
2019-05-29T02:46:56.128Z,93.30
2019-05-29T02:49:25.741Z,93.30
2019-05-29T02:51:54.276Z,93.20
2019-05-29T02:54:22.684Z,93.30
2019-05-29T02:56:52.644Z,93.30
2019-05-29T02:59:21.212Z,93.40
2019-05-29T03:01:49.616Z,93.40
2019-05-29T03:04:17.881Z,93.30
2019-05-29T03:06:46.133Z,93.30
2019-05-29T03:09:14.384Z,93.30
2019-05-29T03:11:42.616Z,93.20
2019-05-29T03:14:10.882Z,93.20
2019-05-29T03:16:39.152Z,93.20
2019-05-29T03:19:07.423Z,93.10
2019-05-29T03:21:35.682Z,93.20
2019-05-29T03:24:03.986Z,93.10
2019-05-29T03:26:33.450Z,93.10
2019-05-29T03:29:02.464Z,93.00
2019-05-29T03:31:37.711Z,93.00
2019-05-29T03:34:00.723Z,92.90
2019-05-29T03:36:35.800Z,92.90
2019-05-29T03:38:59.086Z,92.90
2019-05-29T03:41:28.234Z,92.80
2019-05-29T03:43:56.585Z,92.70
2019-05-29T03:46:31.583Z,92.80
2019-05-29T03:48:54.814Z,92.70
2019-05-29T03:51:23.069Z,92.80
2019-05-29T03:53:51.309Z,92.80
2019-05-29T03:56:19.585Z,92.70
2019-05-29T03:58:47.846Z,92.60
2019-05-29T04:01:16.277Z,92.70
2019-05-29T04:03:44.751Z,92.80
2019-05-29T04:06:12.989Z,92.70
2019-05-29T04:08:41.222Z,92.60
2019-05-29T04:11:09.502Z,92.70
2019-05-29T04:13:38.866Z,92.90
2019-05-29T04:16:07.539Z,93.10
2019-05-29T04:18:36.031Z,92.80
2019-05-29T04:21:04.924Z,92.80
2019-05-29T04:23:36.450Z,92.90
2019-05-29T04:26:06.261Z,92.70
2019-05-29T04:28:35.267Z,93.20
2019-05-29T04:31:04.549Z,92.80
2019-05-29T04:33:34.767Z,92.70
2019-05-29T04:36:02.804Z,92.70
2019-05-29T04:38:33.251Z,92.60
2019-05-29T04:41:01.054Z,92.60
2019-05-29T04:43:30.920Z,92.60
2019-05-29T04:45:59.466Z,92.50
2019-05-29T04:48:29.414Z,92.30
2019-05-29T04:50:57.721Z,92.20
2019-05-29T04:53:25.965Z,92.30
2019-05-29T04:55:54.238Z,92.30
2019-05-29T04:58:22.489Z,92.80
2019-05-29T05:00:59.309Z,92.10
2019-05-29T05:03:20.779Z,92.30
2019-05-29T05:05:49.034Z,92.50
2019-05-29T05:08:17.283Z,92.50
2019-05-29T05:10:45.534Z,92.50
2019-05-29T05:13:13.834Z,92.40
2019-05-29T05:15:42.109Z,92.70
2019-05-29T05:18:10.350Z,93.00
2019-05-29T05:20:38.579Z,92.70
2019-05-29T05:23:06.888Z,92.60
2019-05-29T05:25:36.225Z,92.20
2019-05-29T05:28:04.972Z,92.10
2019-05-29T05:30:34.305Z,91.80
2019-05-29T05:33:02.845Z,91.80
2019-05-29T05:35:31.088Z,92.10
2019-05-29T05:37:59.443Z,92.20
2019-05-29T05:40:27.765Z,92.10
2019-05-29T05:42:56.039Z,92.10
2019-05-29T05:45:24.274Z,92.00
2019-05-29T05:47:57.375Z,91.90
2019-05-29T05:50:22.993Z,91.90
2019-05-29T05:52:51.238Z,91.90
2019-05-29T05:55:19.470Z,91.90
2019-05-29T05:57:47.721Z,91.50
2019-05-29T06:00:19.255Z,91.20
2019-05-29T06:02:47.492Z,91.40
2019-05-29T06:05:15.750Z,91.00
2019-05-29T06:07:44.069Z,90.60
2019-05-29T06:10:12.326Z,90.70
2019-05-29T06:12:40.667Z,90.60
2019-05-29T06:15:09.083Z,90.60
2019-05-29T06:17:38.594Z,90.50
2019-05-29T06:20:08.007Z,90.40
2019-05-29T06:22:36.903Z,90.50
2019-05-29T06:25:06.203Z,90.50
2019-05-29T06:27:35.158Z,90.60
2019-05-29T06:30:07.400Z,90.40
2019-05-29T06:32:35.660Z,90.60
2019-05-29T06:35:05.146Z,90.60
2019-05-29T06:37:33.668Z,90.60
2019-05-29T06:40:02.041Z,90.90
2019-05-29T06:42:30.288Z,90.70
2019-05-29T06:44:58.602Z,90.60
2019-05-29T06:47:26.967Z,90.30
2019-05-29T06:49:55.215Z,90.20
2019-05-29T06:52:23.477Z,90.20
2019-05-29T06:54:51.727Z,90.00
2019-05-29T06:57:20.006Z,89.20
2019-05-29T06:59:48.925Z,87.90
2019-05-29T07:02:17.284Z,87.30
2019-05-29T07:04:46.563Z,88.10
2019-05-29T07:07:14.949Z,88.30
2019-05-29T07:09:43.217Z,87.80
2019-05-29T07:12:11.442Z,88.20
2019-05-29T07:14:40.278Z,88.10
2019-05-29T07:17:08.746Z,87.60
2019-05-29T07:19:48.846Z,86.40
2019-05-29T07:22:06.964Z,86.30
2019-05-29T07:24:35.224Z,86.30
2019-05-29T07:27:03.467Z,85.70
2019-05-29T07:29:31.708Z,85.50
2019-05-29T07:31:59.970Z,85.30
2019-05-29T07:34:28.260Z,85.60
2019-05-29T07:36:56.539Z,85.20
2019-05-29T07:39:24.827Z,84.50
2019-05-29T07:41:53.098Z,84.30
2019-05-29T07:44:21.342Z,84.70
2019-05-29T07:46:49.650Z,84.30
2019-05-29T07:49:17.887Z,94.40
2019-05-29T07:51:46.761Z,96.00
2019-05-29T07:54:15.373Z,97.60
2019-05-29T07:56:44.497Z,99.30
2019-05-29T09:23:23.159Z,99.30
2019-05-29T09:25:51.685Z,99.40
2019-05-29T09:28:20.385Z,98.30
2019-05-29T09:30:49.048Z,98.20
2019-05-29T09:33:19.494Z,97.50
2019-05-29T09:35:47.266Z,96.90
2019-05-29T09:38:16.745Z,97.20
2019-05-29T09:40:45.247Z,97.20
2019-05-29T09:43:13.527Z,96.70
2019-05-29T09:45:41.792Z,96.20
2019-05-29T09:48:10.089Z,95.60
2019-05-29T09:50:50.147Z,96.00
2019-05-29T09:53:08.402Z,95.50
2019-05-29T09:55:36.647Z,94.80
2019-05-29T09:58:04.903Z,94.30
2019-05-29T10:00:33.161Z,94.20
2019-05-29T10:03:01.503Z,93.70
2019-05-29T10:05:30.307Z,93.60
2019-05-29T10:07:59.630Z,93.20
2019-05-29T10:10:28.404Z,93.10
2019-05-29T10:12:57.993Z,93.40
2019-05-29T10:15:26.476Z,93.70
2019-05-29T10:17:55.753Z,94.30
2019-05-29T10:20:24.686Z,93.60
2019-05-29T10:22:52.943Z,93.90
2019-05-29T10:25:21.189Z,94.00
2019-05-29T10:27:49.480Z,93.50
2019-05-29T10:30:19.418Z,94.90
2019-05-29T10:32:48.201Z,95.90
2019-05-29T10:35:16.665Z,96.40
2019-05-29T10:37:44.924Z,97.10
2019-05-29T10:40:13.199Z,97.30
2019-05-29T10:42:42.759Z,97.40
2019-05-29T10:45:11.451Z,97.50
2019-05-29T10:47:39.695Z,97.60
2019-05-29T10:50:09.012Z,97.10
2019-05-29T10:52:37.321Z,96.60
2019-05-29T10:55:07.193Z,96.30
2019-05-29T10:57:35.455Z,96.30
2019-05-29T11:00:08.187Z,96.60
2019-05-29T11:02:36.441Z,96.80
2019-05-29T11:05:05.752Z,96.80
2019-05-29T11:07:34.010Z,96.40
2019-05-29T11:10:02.251Z,95.80
2019-05-29T11:12:30.569Z,94.80
2019-05-29T11:14:58.836Z,94.60
2019-05-29T11:17:27.152Z,93.90
2019-05-29T11:19:55.684Z,93.80
2019-05-29T11:22:26.587Z,93.40
2019-05-29T11:24:54.164Z,94.10
2019-05-29T11:27:25.865Z,93.80
2019-05-29T11:29:53.264Z,94.60
2019-05-29T11:32:22.051Z,94.40
2019-05-29T11:34:52.312Z,93.70
2019-05-29T11:37:20.301Z,94.60
2019-05-29T11:39:48.548Z,94.70
2019-05-29T11:42:26.815Z,93.70
2019-05-29T11:44:46.772Z,93.20
2019-05-29T11:47:15.016Z,92.80
2019-05-29T11:49:43.269Z,92.70
2019-05-29T11:52:23.337Z,92.50
2019-05-29T11:54:41.509Z,92.70
2019-05-29T11:57:09.769Z,92.10
2019-05-29T11:59:38.024Z,91.70
2019-05-29T12:02:06.280Z,91.50
2019-05-29T12:04:34.507Z,92.00
2019-05-29T12:07:02.774Z,91.20
2019-05-29T12:09:33.212Z,90.70
2019-05-29T12:12:02.151Z,90.40
2019-05-29T12:14:30.656Z,90.70
2019-05-29T12:17:00.453Z,90.10
2019-05-29T12:19:29.077Z,90.40
2019-05-29T12:21:58.362Z,90.40
2019-05-29T12:24:26.843Z,90.90
2019-05-29T12:26:56.332Z,90.50
2019-05-29T12:29:24.846Z,90.40
2019-05-29T12:31:53.116Z,89.80
2019-05-29T12:34:21.359Z,90.20
2019-05-29T12:36:49.589Z,90.30
2019-05-29T12:39:17.866Z,89.60
2019-05-29T12:41:46.127Z,86.30
2019-05-29T12:44:14.369Z,86.90
2019-05-29T12:46:42.616Z,91.40
2019-05-29T12:49:10.870Z,91.30
2019-05-29T12:51:39.133Z,91.70
2019-05-29T12:54:07.421Z,93.40
2019-05-29T12:56:35.706Z,93.80
2019-05-29T12:59:04.703Z,95.40
2019-05-29T13:01:33.062Z,94.90
2019-05-29T13:04:02.391Z,94.40
2019-05-29T13:06:30.840Z,94.40
2019-05-29T13:09:00.424Z,95.20
2019-05-29T13:11:28.917Z,94.40
2019-05-29T13:13:58.323Z,94.30
2019-05-29T13:16:26.806Z,94.30
2019-05-29T13:18:55.040Z,94.60
2019-05-29T13:21:23.297Z,94.70
2019-05-29T13:23:51.560Z,94.50
2019-05-29T13:26:19.804Z,94.60
2019-05-29T13:28:48.049Z,94.90
2019-05-29T13:31:16.291Z,95.00
2019-05-29T13:33:44.533Z,94.80
2019-05-29T13:36:12.796Z,94.80
2019-05-29T13:38:41.063Z,94.80
2019-05-29T13:41:09.312Z,94.70
2019-05-29T13:43:37.549Z,94.50
2019-05-29T13:46:05.792Z,94.50
2019-05-29T13:48:34.066Z,94.80
2019-05-29T13:51:03.671Z,94.60
2019-05-29T13:53:32.164Z,94.30
2019-05-29T13:56:01.768Z,94.10
2019-05-29T13:58:30.250Z,94.50
2019-05-29T14:00:58.509Z,93.70
2019-05-29T14:03:26.768Z,93.60
2019-05-29T14:05:55.014Z,92.80
2019-05-29T14:08:23.533Z,92.50
2019-05-29T14:10:51.782Z,92.00
2019-05-29T14:13:20.063Z,92.10
2019-05-29T14:15:48.319Z,92.00
2019-05-29T14:18:16.567Z,91.50
2019-05-29T14:20:44.808Z,91.20
2019-05-29T14:23:13.069Z,91.40
2019-05-29T14:25:41.399Z,91.40
2019-05-29T14:28:09.671Z,91.40
2019-05-29T14:30:38.025Z,91.50
2019-05-29T14:33:06.883Z,91.50
2019-05-29T14:35:36.351Z,91.50
2019-05-29T14:38:08.912Z,91.30
2019-05-29T14:40:34.565Z,91.50
2019-05-29T14:43:06.859Z,91.50
2019-05-29T14:45:32.784Z,91.00
2019-05-29T14:48:02.165Z,90.80
2019-05-29T14:50:30.554Z,90.70
2019-05-29T14:52:58.854Z,91.00
2019-05-29T14:55:27.127Z,91.00
2019-05-29T14:57:55.392Z,91.20
2019-05-29T15:00:25.733Z,90.90
2019-05-29T15:02:53.695Z,90.80
2019-05-29T15:05:22.703Z,90.50
2019-05-29T15:07:50.964Z,90.70
2019-05-29T15:10:27.037Z,90.80
2019-05-29T15:12:49.216Z,90.70
2019-05-29T15:15:17.526Z,90.50
2019-05-29T15:17:45.804Z,90.20
2019-05-29T15:20:16.161Z,90.00
2019-05-29T15:22:44.033Z,89.80
2019-05-29T15:25:21.860Z,89.30
2019-05-29T15:27:43.513Z,90.00
2019-05-29T15:30:16.158Z,90.10
2019-05-29T15:32:41.847Z,90.20
2019-05-29T15:35:13.792Z,90.40
2019-05-29T15:37:40.490Z,90.20
2019-05-29T15:40:08.951Z,90.40
2019-05-29T15:42:37.240Z,90.80
2019-05-29T15:45:09.870Z,91.10
2019-05-29T15:47:38.278Z,90.80
2019-05-29T15:50:09.000Z,91.30
2019-05-29T15:52:38.314Z,91.60
2019-05-29T15:55:21.426Z,91.90
2019-05-29T15:57:37.198Z,92.10
2019-05-29T16:00:09.146Z,92.20
2019-05-29T16:02:37.494Z,91.80
2019-05-29T16:05:06.155Z,96.10
2019-05-29T16:07:34.398Z,95.60
2019-05-29T16:10:02.774Z,95.00
2019-05-29T16:12:31.398Z,94.30
2019-05-29T16:14:59.717Z,95.10
2019-05-29T16:17:27.977Z,94.30
2019-05-29T16:19:56.318Z,93.90
2019-05-29T16:22:24.563Z,94.00
2019-05-29T16:24:52.808Z,94.10
2019-05-29T16:27:22.296Z,94.80
2019-05-29T16:29:50.681Z,94.80
2019-05-29T16:32:20.252Z,95.00
2019-05-29T16:34:48.645Z,95.00
2019-05-29T16:37:17.404Z,95.20
2019-05-29T16:39:45.847Z,95.40
2019-05-29T16:42:14.086Z,95.50
2019-05-29T16:44:42.349Z,95.40
2019-05-29T16:47:10.603Z,95.40
2019-05-29T16:49:38.830Z,95.70
2019-05-29T16:52:07.096Z,97.50
2019-05-29T16:54:35.375Z,96.30
2019-05-29T16:57:03.634Z,96.10
2019-05-29T16:59:31.889Z,95.90
2019-05-29T17:02:00.122Z,95.90
2019-05-29T17:04:28.374Z,95.60
2019-05-29T17:06:56.810Z,95.90
2019-05-29T17:09:25.073Z,95.90
2019-05-29T17:11:53.443Z,95.90
2019-05-29T17:14:22.861Z,95.90
2019-05-29T17:16:51.208Z,95.80
2019-05-29T17:19:20.574Z,95.70
2019-05-29T17:21:49.089Z,95.60
2019-05-29T17:24:18.524Z,95.60
2019-05-29T17:26:47.089Z,95.60
2019-05-29T17:29:16.763Z,95.70
2019-05-29T17:31:45.163Z,95.60
2019-05-29T17:34:14.828Z,95.60
2019-05-29T17:36:43.164Z,95.80
2019-05-29T17:39:11.419Z,95.60
2019-05-29T17:41:39.681Z,95.70
2019-05-29T17:44:07.959Z,95.50
2019-05-29T17:46:36.248Z,94.80
2019-05-29T17:49:06.290Z,95.30
2019-05-29T17:51:34.556Z,95.40
2019-05-29T17:54:02.874Z,95.60
2019-05-29T17:56:36.554Z,95.70
2019-05-29T17:59:01.117Z,95.70
2019-05-29T18:01:32.195Z,95.80
2019-05-29T18:04:00.434Z,95.80
2019-05-29T18:06:28.699Z,95.70
2019-05-29T18:08:57.019Z,95.70
2019-05-29T18:11:25.635Z,95.70
2019-05-29T18:13:53.872Z,95.90
2019-05-29T18:16:23.441Z,96.00
2019-05-29T18:18:51.904Z,95.80
2019-05-29T18:21:21.506Z,95.80
2019-05-29T18:23:53.281Z,95.80
2019-05-29T18:26:20.047Z,95.90
2019-05-29T18:28:48.318Z,96.00
2019-05-29T18:31:16.563Z,95.80
2019-05-29T18:33:44.817Z,96.00
2019-05-29T18:36:13.063Z,96.00
2019-05-29T18:38:41.322Z,96.00
2019-05-29T18:41:10.102Z,96.00
2019-05-29T18:43:38.442Z,96.40
2019-05-29T18:46:07.265Z,96.50
2019-05-29T18:48:35.723Z,96.40
2019-05-29T18:51:03.984Z,96.50
2019-05-29T18:53:33.082Z,96.30
2019-05-29T18:56:01.592Z,96.20
2019-05-29T18:58:30.708Z,96.30
2019-05-29T19:00:59.213Z,96.40
2019-05-29T19:03:27.579Z,96.40
2019-05-29T19:05:55.935Z,96.40
2019-05-29T19:08:25.711Z,96.50
2019-05-29T19:10:54.075Z,96.60
2019-05-29T19:13:22.351Z,96.60
2019-05-29T19:15:51.097Z,96.70
2019-05-29T19:18:19.395Z,96.80
2019-05-29T19:20:47.723Z,96.80
2019-05-29T19:23:16.009Z,97.00
2019-05-29T19:25:44.253Z,97.30
2019-05-29T19:28:12.652Z,97.80
2019-05-29T19:30:40.987Z,97.70
2019-05-29T19:33:09.218Z,97.80
2019-05-29T19:35:37.553Z,98.10
2019-05-29T19:38:05.832Z,97.90
2019-05-29T19:40:34.551Z,97.80
2019-05-29T19:43:03.545Z,97.90
2019-05-29T19:45:32.587Z,98.10
2019-05-29T19:48:02.625Z,98.10
2019-05-29T19:50:30.929Z,98.10
2019-05-29T19:52:59.175Z,98.10
2019-05-29T19:55:30.431Z,98.10
2019-05-29T19:57:57.439Z,98.40
2019-05-29T20:00:25.998Z,98.50
2019-05-29T20:02:54.502Z,99.90
2019-05-29T20:05:23.369Z,99.70
2019-05-29T20:10:25.455Z,98.70
2019-05-29T20:17:34.328Z,99.60
2019-05-29T20:18:44.399Z,99.90
2019-05-29T20:21:22.164Z,99.90
2019-05-29T20:24:06.065Z,99.10
2019-05-29T20:26:44.173Z,99.90
2019-05-29T20:31:42.865Z,99.90
2019-05-29T20:36:40.026Z,99.80
2019-05-29T20:39:09.498Z,99.90
2019-05-29T20:44:07.633Z,99.90
2019-05-29T20:46:38.890Z,99.90
2019-05-29T20:49:07.287Z,99.90
2019-05-29T20:51:36.161Z,99.90
2019-05-29T22:00:57.924Z,82.90
2019-05-29T22:03:26.352Z,84.60
2019-05-29T22:05:54.579Z,85.50
2019-05-29T22:08:22.914Z,86.00
2019-05-29T22:10:51.503Z,86.40
2019-05-29T22:13:19.976Z,86.80
2019-05-29T22:15:48.423Z,87.20
2019-05-29T22:18:16.891Z,87.70
2019-05-29T22:20:45.209Z,88.00
2019-05-29T22:23:15.157Z,88.40
2019-05-29T22:25:43.488Z,88.60
2019-05-29T22:28:11.746Z,88.90
2019-05-29T22:30:40.002Z,89.00
2019-05-29T22:33:08.322Z,89.40
2019-05-29T22:35:36.639Z,89.70
2019-05-29T22:38:04.972Z,89.80
2019-05-29T22:40:33.208Z,89.90
2019-05-29T22:43:01.937Z,90.10
2019-05-29T22:45:30.483Z,90.10
2019-05-29T22:47:59.823Z,90.20
2019-05-29T22:50:28.195Z,90.30
2019-05-29T22:52:56.457Z,90.40
2019-05-29T22:55:24.681Z,90.40
2019-05-29T22:57:53.798Z,90.50
2019-05-29T23:00:22.163Z,90.50
2019-05-29T23:02:50.402Z,90.60
2019-05-29T23:05:19.030Z,90.70
2019-05-29T23:07:47.608Z,90.70
2019-05-29T23:10:15.870Z,90.70
2019-05-29T23:12:44.106Z,90.80
2019-05-29T23:15:12.373Z,90.90
2019-05-29T23:17:40.637Z,90.90
2019-05-29T23:20:08.949Z,90.90
2019-05-29T23:22:37.262Z,90.90
2019-05-29T23:25:05.631Z,91.00
2019-05-29T23:27:34.746Z,91.00
2019-05-29T23:30:04.066Z,91.10
2019-05-29T23:32:32.298Z,91.10
2019-05-29T23:35:01.293Z,91.20
2019-05-29T23:37:29.766Z,91.20
2019-05-29T23:39:59.231Z,91.20
2019-05-29T23:42:27.634Z,91.50
2019-05-29T23:44:56.000Z,91.20
2019-05-29T23:47:24.727Z,91.30
2019-05-29T23:49:53.508Z,91.40
2019-05-29T23:52:21.916Z,91.40
2019-05-29T23:54:50.162Z,91.30
2019-05-29T23:57:18.455Z,91.40
2019-05-29T23:59:46.711Z,91.40
